sensor_id;sensor_type;location;lat;lon;timestamp;pressure;altitude;pressure_sealevel;temperature;humidity
32875;BME280;40468;42.128;24.750;2023-06-22T00:00:57;99895.03;;;25.01;50.15
32875;BME280;40468;42.128;24.750;2023-06-22T00:02:29;99897.69;;;25.01;49.83
32875;BME280;40468;42.128;24.750;2023-06-22T00:04:02;99898.38;;;25.03;49.99
32875;BME280;40468;42.128;24.750;2023-06-22T00:05:34;99896.84;;;25.01;49.92
32875;BME280;40468;42.128;24.750;2023-06-22T00:07:06;99885.31;;;24.92;49.88
32875;BME280;40468;42.128;24.750;2023-06-22T00:08:39;99899.00;;;24.97;50.23
32875;BME280;40468;42.128;24.750;2023-06-22T00:10:10;99906.00;;;24.98;50.60
32875;BME280;40468;42.128;24.750;2023-06-22T00:11:42;99901.81;;;24.95;50.54
32875;BME280;40468;42.128;24.750;2023-06-22T00:13:14;99905.00;;;24.99;50.26
32875;BME280;40468;42.128;24.750;2023-06-22T00:14:47;99901.50;;;24.98;50.72
32875;BME280;40468;42.128;24.750;2023-06-22T00:16:19;99906.84;;;24.98;50.44
32875;BME280;40468;42.128;24.750;2023-06-22T00:17:51;99900.84;;;24.96;50.93
32875;BME280;40468;42.128;24.750;2023-06-22T00:19:23;99904.50;;;24.95;50.72
32875;BME280;40468;42.128;24.750;2023-06-22T00:20:55;99908.06;;;24.78;51.16
32875;BME280;40468;42.128;24.750;2023-06-22T00:22:29;99907.59;;;24.83;51.33
32875;BME280;40468;42.128;24.750;2023-06-22T00:23:59;99909.78;;;24.87;51.28
32875;BME280;40468;42.128;24.750;2023-06-22T00:25:31;99920.44;;;24.87;51.26
32875;BME280;40468;42.128;24.750;2023-06-22T00:27:03;99915.97;;;24.88;51.61
32875;BME280;40468;42.128;24.750;2023-06-22T00:28:35;99930.56;;;24.84;51.19
32875;BME280;40468;42.128;24.750;2023-06-22T00:30:08;99922.75;;;24.82;51.45
32875;BME280;40468;42.128;24.750;2023-06-22T00:31:40;99921.56;;;24.77;51.67
32875;BME280;40468;42.128;24.750;2023-06-22T00:33:12;99922.00;;;24.72;52.10
32875;BME280;40468;42.128;24.750;2023-06-22T00:34:45;99918.16;;;24.66;51.94
32875;BME280;40468;42.128;24.750;2023-06-22T00:36:17;99922.75;;;24.56;52.54
32875;BME280;40468;42.128;24.750;2023-06-22T00:37:49;99925.34;;;24.48;52.35
32875;BME280;40468;42.128;24.750;2023-06-22T00:39:22;99927.31;;;24.46;52.79
32875;BME280;40468;42.128;24.750;2023-06-22T00:40:54;99936.50;;;24.43;52.66
32875;BME280;40468;42.128;24.750;2023-06-22T00:42:25;99930.44;;;24.41;52.66
32875;BME280;40468;42.128;24.750;2023-06-22T00:43:56;99932.28;;;24.41;52.94
32875;BME280;40468;42.128;24.750;2023-06-22T00:45:29;99932.28;;;24.41;53.26
32875;BME280;40468;42.128;24.750;2023-06-22T00:47:00;99932.00;;;24.44;53.29
32875;BME280;40468;42.128;24.750;2023-06-22T00:48:32;99934.09;;;24.40;53.01
32875;BME280;40468;42.128;24.750;2023-06-22T00:50:06;99934.09;;;24.40;53.02
32875;BME280;40468;42.128;24.750;2023-06-22T00:51:38;99935.25;;;24.38;53.34
32875;BME280;40468;42.128;24.750;2023-06-22T00:53:16;99929.06;;;24.37;53.67
32875;BME280;40468;42.128;24.750;2023-06-22T00:54:48;99929.16;;;24.27;53.67
32875;BME280;40468;42.128;24.750;2023-06-22T00:56:22;99922.41;;;24.15;53.85
32875;BME280;40468;42.128;24.750;2023-06-22T00:57:55;99929.34;;;24.08;54.14
32875;BME280;40468;42.128;24.750;2023-06-22T00:59:27;99927.81;;;24.05;54.70
32875;BME280;40468;42.128;24.750;2023-06-22T01:00:59;99914.66;;;24.04;54.89
32875;BME280;40468;42.128;24.750;2023-06-22T01:02:32;99918.47;;;24.01;54.47
32875;BME280;40468;42.128;24.750;2023-06-22T01:04:04;99927.13;;;24.03;54.78
32875;BME280;40468;42.128;24.750;2023-06-22T01:05:38;99927.00;;;24.05;54.57
32875;BME280;40468;42.128;24.750;2023-06-22T01:07:20;99922.81;;;24.02;54.90
32875;BME280;40468;42.128;24.750;2023-06-22T01:09:02;99926.91;;;23.97;54.65
32875;BME280;40468;42.128;24.750;2023-06-22T01:10:41;99925.22;;;23.96;54.68
32875;BME280;40468;42.128;24.750;2023-06-22T01:12:15;99928.19;;;23.93;55.24
32875;BME280;40468;42.128;24.750;2023-06-22T01:13:53;99923.19;;;23.90;54.90
32875;BME280;40468;42.128;24.750;2023-06-22T01:15:31;99927.22;;;23.94;55.09
32875;BME280;40468;42.128;24.750;2023-06-22T01:17:05;99925.53;;;23.93;55.02
32875;BME280;40468;42.128;24.750;2023-06-22T01:18:41;99924.69;;;23.92;55.15
32875;BME280;40468;42.128;24.750;2023-06-22T01:20:15;99932.84;;;23.91;55.65
32875;BME280;40468;42.128;24.750;2023-06-22T01:21:50;99931.31;;;23.88;55.69
32875;BME280;40468;42.128;24.750;2023-06-22T01:23:29;99932.03;;;23.90;55.50
32875;BME280;40468;42.128;24.750;2023-06-22T01:25:09;99927.00;;;23.87;55.50
32875;BME280;40468;42.128;24.750;2023-06-22T01:26:48;99922.66;;;23.86;55.85
32875;BME280;40468;42.128;24.750;2023-06-22T01:28:43;99918.09;;;23.78;55.85
32875;BME280;40468;42.128;24.750;2023-06-22T01:30:16;99911.72;;;23.71;55.92
32875;BME280;40468;42.128;24.750;2023-06-22T01:31:51;99918.94;;;23.79;56.22
32875;BME280;40468;42.128;24.750;2023-06-22T01:33:25;99917.25;;;23.78;56.24
32875;BME280;40468;42.128;24.750;2023-06-22T01:34:57;99925.22;;;23.78;56.08
32875;BME280;40468;42.128;24.750;2023-06-22T01:36:31;99921.06;;;23.75;56.46
32875;BME280;40468;42.128;24.750;2023-06-22T01:38:03;99918.72;;;23.72;56.47
32875;BME280;40468;42.128;24.750;2023-06-22T01:39:36;99923.34;;;23.70;56.22
32875;BME280;40468;42.128;24.750;2023-06-22T01:41:08;99925.16;;;23.70;56.71
32875;BME280;40468;42.128;24.750;2023-06-22T01:42:41;99918.13;;;23.69;56.52
32875;BME280;40468;42.128;24.750;2023-06-22T01:44:16;99911.28;;;23.66;56.52
32875;BME280;40468;42.128;24.750;2023-06-22T01:45:48;99909.63;;;23.65;56.63
32875;BME280;40468;42.128;24.750;2023-06-22T01:47:20;99898.38;;;23.53;56.84
32875;BME280;40468;42.128;24.750;2023-06-22T01:48:52;99908.78;;;23.65;56.69
32875;BME280;40468;42.128;24.750;2023-06-22T01:50:24;99911.59;;;23.63;57.18
32875;BME280;40468;42.128;24.750;2023-06-22T01:51:55;99910.63;;;23.64;57.03
32875;BME280;40468;42.128;24.750;2023-06-22T01:53:27;99910.63;;;23.64;57.50
32875;BME280;40468;42.128;24.750;2023-06-22T01:54:59;99911.06;;;23.59;57.29
32875;BME280;40468;42.128;24.750;2023-06-22T01:56:31;99917.38;;;23.58;57.21
32875;BME280;40468;42.128;24.750;2023-06-22T01:58:04;99915.84;;;23.56;57.73
32875;BME280;40468;42.128;24.750;2023-06-22T01:59:39;99921.16;;;23.56;57.85
32875;BME280;40468;42.128;24.750;2023-06-22T02:01:17;99925.13;;;23.52;57.99
32875;BME280;40468;42.128;24.750;2023-06-22T02:02:59;99923.59;;;23.49;57.92
32875;BME280;40468;42.128;24.750;2023-06-22T02:04:35;99930.03;;;23.47;57.73
32875;BME280;40468;42.128;24.750;2023-06-22T02:06:14;99933.69;;;23.46;57.57
32875;BME280;40468;42.128;24.750;2023-06-22T02:07:52;99923.63;;;23.39;57.74
32875;BME280;40468;42.128;24.750;2023-06-22T02:09:30;99925.63;;;23.37;58.13
32875;BME280;40468;42.128;24.750;2023-06-22T02:11:03;99923.25;;;23.34;57.98
32875;BME280;40468;42.128;24.750;2023-06-22T02:12:38;99922.84;;;23.29;58.28
32875;BME280;40468;42.128;24.750;2023-06-22T02:14:11;99912.53;;;23.26;57.97
32875;BME280;40468;42.128;24.750;2023-06-22T02:15:45;99916.00;;;23.27;58.13
32875;BME280;40468;42.128;24.750;2023-06-22T02:17:18;99920.50;;;23.26;58.33
32875;BME280;40468;42.128;24.750;2023-06-22T02:18:50;99914.47;;;23.24;58.09
32875;BME280;40468;42.128;24.750;2023-06-22T02:20:23;99927.72;;;23.06;58.40
32875;BME280;40468;42.128;24.750;2023-06-22T02:21:55;99920.97;;;23.12;58.20
32875;BME280;40468;42.128;24.750;2023-06-22T02:23:27;99933.00;;;23.16;58.59
32875;BME280;40468;42.128;24.750;2023-06-22T02:24:59;99931.00;;;23.18;58.58
32875;BME280;40468;42.128;24.750;2023-06-22T02:26:30;99930.34;;;23.16;58.59
32875;BME280;40468;42.128;24.750;2023-06-22T02:28:02;99921.69;;;23.14;58.73
32875;BME280;40468;42.128;24.750;2023-06-22T02:29:34;99925.75;;;23.08;58.86
32875;BME280;40468;42.128;24.750;2023-06-22T02:31:08;99931.47;;;23.13;58.76
32875;BME280;40468;42.128;24.750;2023-06-22T02:32:39;99931.59;;;23.12;58.66
32875;BME280;40468;42.128;24.750;2023-06-22T02:34:12;99936.78;;;23.13;58.68
32875;BME280;40468;42.128;24.750;2023-06-22T02:35:48;99936.09;;;23.11;58.82
32875;BME280;40468;42.128;24.750;2023-06-22T02:37:20;99934.97;;;23.14;58.80
32875;BME280;40468;42.128;24.750;2023-06-22T02:38:55;99928.16;;;23.02;58.82
32875;BME280;40468;42.128;24.750;2023-06-22T02:40:31;99943.53;;;23.08;58.86
32875;BME280;40468;42.128;24.750;2023-06-22T02:42:04;99938.78;;;23.02;58.67
32875;BME280;40468;42.128;24.750;2023-06-22T02:43:36;99941.16;;;22.95;59.03
32875;BME280;40468;42.128;24.750;2023-06-22T02:45:08;99951.09;;;22.93;58.96
32875;BME280;40468;42.128;24.750;2023-06-22T02:46:42;99946.75;;;22.92;59.13
32875;BME280;40468;42.128;24.750;2023-06-22T02:48:12;99945.25;;;22.89;59.19
32875;BME280;40468;42.128;24.750;2023-06-22T02:49:44;99940.59;;;22.91;59.23
32875;BME280;40468;42.128;24.750;2023-06-22T02:51:17;99944.38;;;22.89;59.29
32875;BME280;40468;42.128;24.750;2023-06-22T02:52:48;99944.97;;;22.83;59.50
32875;BME280;40468;42.128;24.750;2023-06-22T02:54:20;99945.25;;;22.80;59.48
32875;BME280;40468;42.128;24.750;2023-06-22T02:55:52;99947.66;;;22.73;59.83
32875;BME280;40468;42.128;24.750;2023-06-22T02:57:24;99947.22;;;22.68;59.40
32875;BME280;40468;42.128;24.750;2023-06-22T02:58:56;99948.50;;;22.64;60.02
32875;BME280;40468;42.128;24.750;2023-06-22T03:00:31;99955.22;;;22.58;59.86
32875;BME280;40468;42.128;24.750;2023-06-22T03:02:05;99950.03;;;22.57;60.07
32875;BME280;40468;42.128;24.750;2023-06-22T03:03:36;99952.31;;;22.52;60.27
32875;BME280;40468;42.128;24.750;2023-06-22T03:05:08;99958.75;;;22.49;60.52
32875;BME280;40468;42.128;24.750;2023-06-22T03:06:44;99960.56;;;22.48;60.42
32875;BME280;40468;42.128;24.750;2023-06-22T03:08:21;99964.16;;;22.47;60.44
32875;BME280;40468;42.128;24.750;2023-06-22T03:09:53;99964.16;;;22.47;60.55
32875;BME280;40468;42.128;24.750;2023-06-22T03:11:25;99961.81;;;22.44;60.62
32875;BME280;40468;42.128;24.750;2023-06-22T03:12:57;99962.91;;;22.42;60.90
32875;BME280;40468;42.128;24.750;2023-06-22T03:14:29;99966.72;;;22.39;60.58
32875;BME280;40468;42.128;24.750;2023-06-22T03:16:01;99957.91;;;22.39;60.33
32875;BME280;40468;42.128;24.750;2023-06-22T03:17:35;99959.72;;;22.38;60.80
32875;BME280;40468;42.128;24.750;2023-06-22T03:19:08;99966.84;;;22.38;60.63
32875;BME280;40468;42.128;24.750;2023-06-22T03:20:39;99962.53;;;22.37;60.52
32875;BME280;40468;42.128;24.750;2023-06-22T03:22:11;99963.06;;;22.40;60.65
32875;BME280;40468;42.128;24.750;2023-06-22T03:23:45;99967.00;;;22.36;60.57
32875;BME280;40468;42.128;24.750;2023-06-22T03:25:17;99972.44;;;22.35;60.14
32875;BME280;40468;42.128;24.750;2023-06-22T03:26:49;99968.66;;;22.37;60.24
32875;BME280;40468;42.128;24.750;2023-06-22T03:28:20;99980.00;;;22.39;60.27
32875;BME280;40468;42.128;24.750;2023-06-22T03:29:51;99970.22;;;22.40;59.70
32875;BME280;40468;42.128;24.750;2023-06-22T03:31:23;99972.69;;;22.41;59.83
32875;BME280;40468;42.128;24.750;2023-06-22T03:32:55;99974.41;;;22.42;59.45
32875;BME280;40468;42.128;24.750;2023-06-22T03:34:27;99974.53;;;22.41;59.52
32875;BME280;40468;42.128;24.750;2023-06-22T03:36:04;99978.44;;;22.37;59.41
32875;BME280;40468;42.128;24.750;2023-06-22T03:37:36;99985.41;;;22.38;59.00
32875;BME280;40468;42.128;24.750;2023-06-22T03:39:08;99980.94;;;22.38;58.99
32875;BME280;40468;42.128;24.750;2023-06-22T03:40:40;99976.91;;;22.34;58.81
32875;BME280;40468;42.128;24.750;2023-06-22T03:42:12;99977.91;;;22.33;58.77
32875;BME280;40468;42.128;24.750;2023-06-22T03:43:44;99974.66;;;22.30;59.18
32875;BME280;40468;42.128;24.750;2023-06-22T03:45:16;99981.22;;;22.35;59.06
32875;BME280;40468;42.128;24.750;2023-06-22T03:46:48;99985.56;;;22.36;59.31
32875;BME280;40468;42.128;24.750;2023-06-22T03:48:21;99979.69;;;22.33;59.09
32875;BME280;40468;42.128;24.750;2023-06-22T03:49:53;99987.06;;;22.10;59.46
32875;BME280;40468;42.128;24.750;2023-06-22T03:51:25;99988.47;;;22.14;59.49
32875;BME280;40468;42.128;24.750;2023-06-22T03:52:57;99989.16;;;22.16;59.69
32875;BME280;40468;42.128;24.750;2023-06-22T03:54:29;99989.88;;;22.18;59.97
32875;BME280;40468;42.128;24.750;2023-06-22T03:56:01;99989.06;;;22.17;59.66
32875;BME280;40468;42.128;24.750;2023-06-22T03:57:33;99979.28;;;22.18;59.78
32875;BME280;40468;42.128;24.750;2023-06-22T03:59:05;99987.94;;;22.20;59.66
32875;BME280;40468;42.128;24.750;2023-06-22T04:00:37;99982.34;;;22.23;59.61
32875;BME280;40468;42.128;24.750;2023-06-22T04:02:10;99982.34;;;22.23;59.83
32875;BME280;40468;42.128;24.750;2023-06-22T04:03:43;99970.06;;;22.22;59.80
32875;BME280;40468;42.128;24.750;2023-06-22T04:05:15;99978.03;;;22.22;59.65
32875;BME280;40468;42.128;24.750;2023-06-22T04:06:49;99976.22;;;22.22;60.08
32875;BME280;40468;42.128;24.750;2023-06-22T04:08:21;99972.03;;;22.20;60.08
32875;BME280;40468;42.128;24.750;2023-06-22T04:09:53;99971.31;;;22.18;60.15
32875;BME280;40468;42.128;24.750;2023-06-22T04:11:25;99973.97;;;22.18;60.12
32875;BME280;40468;42.128;24.750;2023-06-22T04:12:57;99971.31;;;22.18;60.13
32875;BME280;40468;42.128;24.750;2023-06-22T04:14:29;99975.09;;;22.25;60.24
32875;BME280;40468;42.128;24.750;2023-06-22T04:16:01;99976.47;;;22.29;60.01
32875;BME280;40468;42.128;24.750;2023-06-22T04:17:33;99977.03;;;22.33;60.22
32875;BME280;40468;42.128;24.750;2023-06-22T04:19:06;99983.75;;;22.37;59.83
32875;BME280;40468;42.128;24.750;2023-06-22T04:20:43;99987.25;;;22.37;59.88
32875;BME280;40468;42.128;24.750;2023-06-22T04:22:17;99982.63;;;22.39;60.03
32875;BME280;40468;42.128;24.750;2023-06-22T04:23:49;99986.53;;;22.45;60.21
32875;BME280;40468;42.128;24.750;2023-06-22T04:25:22;99988.75;;;22.49;60.25
32875;BME280;40468;42.128;24.750;2023-06-22T04:26:54;99992.13;;;22.52;60.00
32875;BME280;40468;42.128;24.750;2023-06-22T04:28:26;99986.38;;;22.56;60.07
32875;BME280;40468;42.128;24.750;2023-06-22T04:29:58;99995.75;;;22.60;60.02
32875;BME280;40468;42.128;24.750;2023-06-22T04:31:30;99983.31;;;22.61;59.76
32875;BME280;40468;42.128;24.750;2023-06-22T04:33:06;99990.16;;;22.63;59.88
32875;BME280;40468;42.128;24.750;2023-06-22T04:36:12;99991.81;;;22.64;59.80
32875;BME280;40468;42.128;24.750;2023-06-22T04:37:45;99989.03;;;22.66;59.83
32875;BME280;40468;42.128;24.750;2023-06-22T04:39:19;99978.69;;;22.73;59.91
32875;BME280;40468;42.128;24.750;2023-06-22T04:40:51;99991.50;;;22.77;59.52
32875;BME280;40468;42.128;24.750;2023-06-22T04:42:27;99995.41;;;22.83;59.20
32875;BME280;40468;42.128;24.750;2023-06-22T04:43:59;99991.63;;;22.85;59.13
32875;BME280;40468;42.128;24.750;2023-06-22T04:45:31;99997.19;;;22.92;58.87
32875;BME280;40468;42.128;24.750;2023-06-22T04:47:04;99998.75;;;22.94;58.85
32875;BME280;40468;42.128;24.750;2023-06-22T04:48:38;99996.81;;;22.97;58.95
32875;BME280;40468;42.128;24.750;2023-06-22T04:50:12;99997.34;;;23.00;59.26
32875;BME280;40468;42.128;24.750;2023-06-22T04:51:44;99989.09;;;22.93;59.12
32875;BME280;40468;42.128;24.750;2023-06-22T04:53:16;99985.06;;;22.99;58.94
32875;BME280;40468;42.128;24.750;2023-06-22T04:54:49;99978.91;;;22.99;59.20
32875;BME280;40468;42.128;24.750;2023-06-22T04:56:25;99987.97;;;23.06;58.67
32875;BME280;40468;42.128;24.750;2023-06-22T04:57:58;99988.69;;;23.08;59.13
32875;BME280;40468;42.128;24.750;2023-06-22T04:59:36;99985.84;;;23.09;58.71
32875;BME280;40468;42.128;24.750;2023-06-22T05:01:09;99978.59;;;23.11;58.69
32875;BME280;40468;42.128;24.750;2023-06-22T05:02:41;99979.41;;;23.12;58.72
32875;BME280;40468;42.128;24.750;2023-06-22T05:04:13;99974.28;;;23.10;59.03
32875;BME280;40468;42.128;24.750;2023-06-22T05:05:47;99979.28;;;23.13;58.65
32875;BME280;40468;42.128;24.750;2023-06-22T05:07:19;99979.97;;;23.15;58.53
32875;BME280;40468;42.128;24.750;2023-06-22T05:08:53;99973.53;;;23.18;58.95
32875;BME280;40468;42.128;24.750;2023-06-22T05:10:27;99977.56;;;23.22;58.82
32875;BME280;40468;42.128;24.750;2023-06-22T05:11:59;99968.03;;;23.29;58.51
32875;BME280;40468;42.128;24.750;2023-06-22T05:13:33;99975.28;;;23.37;58.73
32875;BME280;40468;42.128;24.750;2023-06-22T05:15:06;99977.19;;;23.45;58.53
32875;BME280;40468;42.128;24.750;2023-06-22T05:16:38;99970.44;;;23.50;58.50
32875;BME280;40468;42.128;24.750;2023-06-22T05:18:11;99972.66;;;23.55;58.36
32875;BME280;40468;42.128;24.750;2023-06-22T05:19:43;99975.84;;;23.58;58.16
32875;BME280;40468;42.128;24.750;2023-06-22T05:21:22;99969.09;;;23.64;58.17
32875;BME280;40468;42.128;24.750;2023-06-22T05:22:55;99966.81;;;23.69;57.52
32875;BME280;40468;42.128;24.750;2023-06-22T05:24:27;99972.56;;;23.74;57.72
32875;BME280;40468;42.128;24.750;2023-06-22T05:25:59;99969.59;;;23.77;57.36
32875;BME280;40468;42.128;24.750;2023-06-22T05:27:31;99974.63;;;23.80;57.71
32875;BME280;40468;42.128;24.750;2023-06-22T05:29:03;99976.00;;;23.84;57.18
32875;BME280;40468;42.128;24.750;2023-06-22T05:30:35;99971.53;;;23.85;57.05
32875;BME280;40468;42.128;24.750;2023-06-22T05:32:08;99977.22;;;23.90;57.33
32875;BME280;40468;42.128;24.750;2023-06-22T05:33:40;99976.06;;;23.93;57.37
32875;BME280;40468;42.128;24.750;2023-06-22T05:35:12;99977.84;;;24.02;57.33
32875;BME280;40468;42.128;24.750;2023-06-22T05:36:46;99976.38;;;24.07;57.26
32875;BME280;40468;42.128;24.750;2023-06-22T05:38:18;99975.25;;;24.10;57.01
32875;BME280;40468;42.128;24.750;2023-06-22T05:39:50;99962.50;;;24.14;56.68
32875;BME280;40468;42.128;24.750;2023-06-22T05:41:26;99976.00;;;24.20;56.82
32875;BME280;40468;42.128;24.750;2023-06-22T05:42:58;99971.22;;;24.24;56.42
32875;BME280;40468;42.128;24.750;2023-06-22T05:44:31;99976.09;;;24.28;56.15
32875;BME280;40468;42.128;24.750;2023-06-22T05:46:05;99971.81;;;24.36;56.24
32875;BME280;40468;42.128;24.750;2023-06-22T05:47:37;99975.56;;;24.43;56.33
32875;BME280;40468;42.128;24.750;2023-06-22T05:49:09;99968.63;;;24.50;55.87
32875;BME280;40468;42.128;24.750;2023-06-22T05:50:42;99977.66;;;24.57;55.33
32875;BME280;40468;42.128;24.750;2023-06-22T05:52:15;99973.41;;;24.64;55.40
32875;BME280;40468;42.128;24.750;2023-06-22T05:53:47;99976.41;;;24.69;54.79
32875;BME280;40468;42.128;24.750;2023-06-22T05:55:20;99975.78;;;24.75;55.02
32875;BME280;40468;42.128;24.750;2023-06-22T05:56:53;99977.53;;;24.85;55.13
32875;BME280;40468;42.128;24.750;2023-06-22T05:58:25;99981.44;;;24.98;54.92
32875;BME280;40468;42.128;24.750;2023-06-22T05:59:57;99977.34;;;25.12;54.71
32875;BME280;40468;42.128;24.750;2023-06-22T06:01:37;99977.28;;;25.30;54.58
32875;BME280;40468;42.128;24.750;2023-06-22T06:03:12;99972.00;;;25.47;54.18
32875;BME280;40468;42.128;24.750;2023-06-22T06:04:47;99961.88;;;25.58;54.28
32875;BME280;40468;42.128;24.750;2023-06-22T06:06:21;99972.13;;;25.71;53.96
32875;BME280;40468;42.128;24.750;2023-06-22T06:08:05;99973.94;;;25.79;53.23
32875;BME280;40468;42.128;24.750;2023-06-22T06:09:41;99977.81;;;25.84;53.28
32875;BME280;40468;42.128;24.750;2023-06-22T06:11:14;99974.50;;;25.91;53.04
32875;BME280;40468;42.128;24.750;2023-06-22T06:12:46;99975.19;;;25.93;52.68
32875;BME280;40468;42.128;24.750;2023-06-22T06:14:18;99975.34;;;25.99;52.47
32875;BME280;40468;42.128;24.750;2023-06-22T06:15:50;99985.38;;;26.05;52.28
32875;BME280;40468;42.128;24.750;2023-06-22T06:17:25;99980.22;;;26.12;51.98
32875;BME280;40468;42.128;24.750;2023-06-22T06:18:57;99952.38;;;26.06;51.27
32875;BME280;40468;42.128;24.750;2023-06-22T06:20:29;99968.56;;;26.21;51.00
32875;BME280;40468;42.128;24.750;2023-06-22T06:22:01;99970.22;;;26.22;50.99
32875;BME280;40468;42.128;24.750;2023-06-22T06:23:34;99960.53;;;26.21;50.39
32875;BME280;40468;42.128;24.750;2023-06-22T06:25:06;99966.56;;;26.15;51.22
32875;BME280;40468;42.128;24.750;2023-06-22T06:26:37;99959.53;;;26.22;50.78
32875;BME280;40468;42.128;24.750;2023-06-22T06:28:09;99962.69;;;26.34;50.38
32875;BME280;40468;42.128;24.750;2023-06-22T06:29:41;99965.38;;;26.42;50.21
32875;BME280;40468;42.128;24.750;2023-06-22T06:31:13;99957.03;;;26.45;49.74
32875;BME280;40468;42.128;24.750;2023-06-22T06:32:47;99963.22;;;26.54;49.60
32875;BME280;40468;42.128;24.750;2023-06-22T06:34:19;99967.22;;;26.66;49.56
32875;BME280;40468;42.128;24.750;2023-06-22T06:35:51;99967.22;;;26.74;49.29
32875;BME280;40468;42.128;24.750;2023-06-22T06:37:23;99965.34;;;26.83;48.78
32875;BME280;40468;42.128;24.750;2023-06-22T06:38:59;99966.00;;;26.93;48.56
32875;BME280;40468;42.128;24.750;2023-06-22T06:40:31;99974.81;;;27.02;48.06
32875;BME280;40468;42.128;24.750;2023-06-22T06:42:05;99969.47;;;27.10;48.04
32875;BME280;40468;42.128;24.750;2023-06-22T06:43:37;99966.44;;;27.13;47.92
32875;BME280;40468;42.128;24.750;2023-06-22T06:45:09;99969.94;;;27.14;47.15
32875;BME280;40468;42.128;24.750;2023-06-22T06:46:41;99971.78;;;27.13;47.15
32875;BME280;40468;42.128;24.750;2023-06-22T06:48:13;99967.44;;;27.20;46.64
32875;BME280;40468;42.128;24.750;2023-06-22T06:49:45;99966.59;;;27.28;47.02
32875;BME280;40468;42.128;24.750;2023-06-22T06:51:17;99956.84;;;27.35;46.82
32875;BME280;40468;42.128;24.750;2023-06-22T06:52:49;99960.31;;;27.44;46.17
32875;BME280;40468;42.128;24.750;2023-06-22T06:54:23;99957.59;;;27.52;46.26
32875;BME280;40468;42.128;24.750;2023-06-22T06:55:55;99958.41;;;27.61;46.04
32875;BME280;40468;42.128;24.750;2023-06-22T06:57:27;99952.16;;;27.68;45.90
32875;BME280;40468;42.128;24.750;2023-06-22T06:58:59;99958.16;;;27.79;45.93
32875;BME280;40468;42.128;24.750;2023-06-22T07:00:31;99958.22;;;27.94;45.24
32875;BME280;40468;42.128;24.750;2023-06-22T07:02:04;99959.47;;;28.06;44.99
32875;BME280;40468;42.128;24.750;2023-06-22T07:03:36;99953.03;;;28.15;45.19
32875;BME280;40468;42.128;24.750;2023-06-22T07:05:14;99950.75;;;28.27;44.61
32875;BME280;40468;42.128;24.750;2023-06-22T07:06:54;99954.22;;;28.35;44.61
32875;BME280;40468;42.128;24.750;2023-06-22T07:08:26;99959.53;;;28.44;44.46
32875;BME280;40468;42.128;24.750;2023-06-22T07:10:02;99954.09;;;28.52;44.40
32875;BME280;40468;42.128;24.750;2023-06-22T07:11:37;99947.81;;;28.60;44.27
32875;BME280;40468;42.128;24.750;2023-06-22T07:13:09;99948.56;;;28.68;43.99
32875;BME280;40468;42.128;24.750;2023-06-22T07:14:42;99945.16;;;28.74;43.67
32875;BME280;40468;42.128;24.750;2023-06-22T07:16:15;99948.78;;;28.82;43.64
32875;BME280;40468;42.128;24.750;2023-06-22T07:17:47;99957.75;;;28.89;43.27
32875;BME280;40468;42.128;24.750;2023-06-22T07:19:24;99947.00;;;28.89;43.14
32875;BME280;40468;42.128;24.750;2023-06-22T07:20:57;99966.84;;;29.02;42.79
32875;BME280;40468;42.128;24.750;2023-06-22T07:22:29;99958.22;;;29.07;42.87
32875;BME280;40468;42.128;24.750;2023-06-22T07:24:01;99952.50;;;29.10;42.38
32875;BME280;40468;42.128;24.750;2023-06-22T07:25:35;99952.59;;;29.17;42.35
32875;BME280;40468;42.128;24.750;2023-06-22T07:27:07;99953.06;;;29.20;42.32
32875;BME280;40468;42.128;24.750;2023-06-22T07:28:42;99954.53;;;29.23;41.93
32875;BME280;40468;42.128;24.750;2023-06-22T07:30:14;99953.72;;;29.22;42.22
32875;BME280;40468;42.128;24.750;2023-06-22T07:31:46;99940.19;;;29.16;41.71
32875;BME280;40468;42.128;24.750;2023-06-22T07:33:20;99963.31;;;29.32;41.70
32875;BME280;40468;42.128;24.750;2023-06-22T07:34:52;99961.09;;;29.35;41.62
32875;BME280;40468;42.128;24.750;2023-06-22T07:36:24;99964.88;;;29.41;41.45
32875;BME280;40468;42.128;24.750;2023-06-22T07:37:56;99954.13;;;29.41;41.50
32875;BME280;40468;42.128;24.750;2023-06-22T07:39:28;99969.75;;;29.52;41.54
32875;BME280;40468;42.128;24.750;2023-06-22T07:41:02;99958.88;;;29.60;41.26
32875;BME280;40468;42.128;24.750;2023-06-22T07:42:36;99963.53;;;29.66;41.25
32875;BME280;40468;42.128;24.750;2023-06-22T07:44:08;99960.09;;;29.73;41.05
32875;BME280;40468;42.128;24.750;2023-06-22T07:45:40;99950.81;;;29.75;40.76
32875;BME280;40468;42.128;24.750;2023-06-22T07:47:13;99949.25;;;29.81;40.48
32875;BME280;40468;42.128;24.750;2023-06-22T07:48:45;99964.66;;;29.93;40.27
32875;BME280;40468;42.128;24.750;2023-06-22T07:50:17;99969.44;;;29.98;40.00
32875;BME280;40468;42.128;24.750;2023-06-22T07:51:49;99961.28;;;30.06;39.82
32875;BME280;40468;42.128;24.750;2023-06-22T07:53:21;99950.16;;;30.09;39.67
32875;BME280;40468;42.128;24.750;2023-06-22T07:54:53;99964.34;;;30.25;39.23
32875;BME280;40468;42.128;24.750;2023-06-22T07:56:27;99937.50;;;30.25;39.06
32875;BME280;40468;42.128;24.750;2023-06-22T07:57:59;99954.63;;;30.45;39.10
32875;BME280;40468;42.128;24.750;2023-06-22T07:59:31;99958.41;;;30.57;38.61
32875;BME280;40468;42.128;24.750;2023-06-22T08:01:03;99959.75;;;30.68;38.59
32875;BME280;40468;42.128;24.750;2023-06-22T08:02:35;99952.38;;;30.77;38.20
32875;BME280;40468;42.128;24.750;2023-06-22T08:04:07;99959.91;;;30.88;37.91
32875;BME280;40468;42.128;24.750;2023-06-22T08:05:39;99955.81;;;30.99;37.37
32875;BME280;40468;42.128;24.750;2023-06-22T08:07:11;99959.41;;;31.06;37.23
32875;BME280;40468;42.128;24.750;2023-06-22T08:08:43;99954.88;;;31.13;36.94